Time;durP1;ratioP1;P1;durP2;ratioP2;P2;SDS_P1;SDS_P2;PMS_P1;PMS_P2;Temp;Humidity;BMP_temperature;BMP_pressure;BME280_temperature;BME280_humidity;BME280_pressure;Samples;Min_cycle;Max_cycle;Signal;HPM_P1;HPM_P2
2021/09/12 00:00:41;;;;;;;10.87;8.07;;;20.30;99.90;;;;;;5119687;28;20815;-84
2021/09/12 00:03:09;;;;;;;11.07;9.10;;;20.30;99.90;;;;;;5121719;28;20456;-81
2021/09/12 00:05:37;;;;;;;13.20;10.10;;;20.30;99.90;;;;;;5119721;28;20472;-83
2021/09/12 00:08:05;;;;;;;12.80;10.80;;;20.30;99.90;;;;;;5116020;28;21143;-83
2021/09/12 00:10:32;;;;;;;11.40;9.40;;;20.40;99.90;;;;;;5125555;28;20474;-83
2021/09/12 00:13:00;;;;;;;11.63;9.77;;;20.30;99.90;;;;;;5120667;28;20481;-83
2021/09/12 00:15:26;;;;;;;10.43;8.47;;;20.30;99.90;;;;;;5118472;28;20517;-82
2021/09/12 00:17:54;;;;;;;9.10;8.20;;;20.30;99.90;;;;;;5115067;28;20470;-82
2021/09/12 00:20:23;;;;;;;9.73;8.70;;;20.30;99.90;;;;;;5119192;28;20457;-83
2021/09/12 00:22:50;;;;;;;16.60;9.17;;;20.30;99.90;;;;;;5115572;28;20487;-82
2021/09/12 00:25:16;;;;;;;10.57;9.47;;;20.30;99.90;;;;;;5119592;28;20475;-82
2021/09/12 00:27:44;;;;;;;9.90;8.83;;;20.30;99.90;;;;;;5119420;28;20488;-84
2021/09/12 00:30:13;;;;;;;16.37;9.77;;;20.30;99.90;;;;;;5116971;28;20506;-82
2021/09/12 00:32:40;;;;;;;11.03;8.73;;;20.30;99.90;;;;;;5116117;28;20975;-83
2021/09/12 00:35:09;;;;;;;10.83;9.23;;;20.30;99.90;;;;;;5119645;28;20488;-83
2021/09/12 00:37:38;;;;;;;11.43;10.00;;;20.30;99.90;;;;;;5117719;28;20460;-83
2021/09/12 00:40:07;;;;;;;13.63;9.13;;;20.30;99.90;;;;;;5118840;27;20455;-82
2021/09/12 00:42:35;;;;;;;12.37;9.80;;;20.30;99.90;;;;;;5120511;28;20462;-81
2021/09/12 00:45:02;;;;;;;12.03;9.17;;;20.30;99.90;;;;;;5117254;28;20467;-83
2021/09/12 00:47:31;;;;;;;12.47;9.80;;;20.30;99.90;;;;;;5115805;28;20544;-82
2021/09/12 00:50:02;;;;;;;9.50;8.50;;;20.30;99.90;;;;;;5121510;28;20564;-81
2021/09/12 00:52:30;;;;;;;13.37;9.20;;;20.30;99.90;;;;;;5118725;28;21223;-81
2021/09/12 00:55:00;;;;;;;10.13;9.07;;;20.30;99.90;;;;;;5121474;28;20615;-83
2021/09/12 00:57:28;;;;;;;11.63;9.57;;;20.30;99.90;;;;;;5116560;28;20456;-84
2021/09/12 00:59:57;;;;;;;13.40;10.07;;;20.30;99.90;;;;;;5121631;28;20455;-81
2021/09/12 01:02:25;;;;;;;10.77;9.30;;;20.30;99.90;;;;;;5121438;28;20981;-81
2021/09/12 01:04:52;;;;;;;10.60;9.30;;;20.30;99.90;;;;;;5121673;28;20547;-83
2021/09/12 01:07:19;;;;;;;11.13;9.93;;;20.30;99.90;;;;;;5119069;28;20461;-83
2021/09/12 01:09:46;;;;;;;11.13;10.00;;;20.30;99.90;;;;;;5122281;27;20539;-82
2021/09/12 01:12:16;;;;;;;11.83;9.67;;;20.30;99.90;;;;;;5123502;27;20471;-82
2021/09/12 01:14:44;;;;;;;10.17;9.07;;;20.30;99.90;;;;;;5123790;27;20488;-84
2021/09/12 01:17:12;;;;;;;12.37;9.80;;;20.30;99.90;;;;;;5122667;27;20467;-82
2021/09/12 01:19:39;;;;;;;13.60;9.37;;;20.30;99.90;;;;;;5122169;27;20836;-82
2021/09/12 01:22:08;;;;;;;11.10;10.00;;;20.30;99.90;;;;;;5118200;27;20915;-84
2021/09/12 01:24:38;;;;;;;14.60;8.23;;;20.30;99.90;;;;;;5126424;27;20475;-82
2021/09/12 01:27:05;;;;;;;11.60;10.17;;;20.30;99.90;;;;;;5121722;27;20495;-82
2021/09/12 01:29:33;;;;;;;11.23;9.30;;;20.30;99.90;;;;;;5124650;27;20463;-81
2021/09/12 01:32:00;;;;;;;9.73;8.80;;;20.20;99.90;;;;;;5117660;27;20487;-83
2021/09/12 01:34:28;;;;;;;11.23;9.37;;;20.20;99.90;;;;;;5130172;27;20523;-81
2021/09/12 01:36:55;;;;;;;11.33;10.13;;;20.20;99.90;;;;;;5126678;27;20836;-82
2021/09/12 01:39:22;;;;;;;10.00;8.80;;;20.20;99.90;;;;;;5121097;27;20460;-81
2021/09/12 01:41:50;;;;;;;9.63;8.60;;;20.20;99.90;;;;;;5121832;27;20463;-83
2021/09/12 01:44:23;;;;;;;13.20;9.50;;;20.10;99.90;;;;;;5126588;27;20839;-82
2021/09/12 01:46:51;;;;;;;12.37;9.30;;;20.10;99.90;;;;;;5118141;27;21116;-82
2021/09/12 01:49:18;;;;;;;9.83;8.80;;;20.20;99.90;;;;;;5125597;27;20566;-81
2021/09/12 01:51:46;;;;;;;9.93;8.90;;;20.10;99.90;;;;;;5119851;27;20555;-81
2021/09/12 01:54:13;;;;;;;9.83;8.10;;;20.10;99.90;;;;;;5124559;27;20490;-83
2021/09/12 01:56:41;;;;;;;12.97;9.47;;;20.10;99.90;;;;;;5121099;27;20503;-83
2021/09/12 01:59:10;;;;;;;10.70;9.70;;;20.00;99.90;;;;;;5117759;27;20464;-81
2021/09/12 02:01:37;;;;;;;10.60;9.40;;;20.00;99.90;;;;;;5115884;27;20460;-82
2021/09/12 02:04:06;;;;;;;11.00;9.90;;;20.00;99.90;;;;;;5112509;27;20457;-82
2021/09/12 02:06:34;;;;;;;11.70;9.10;;;20.00;99.90;;;;;;5117865;27;20459;-84
2021/09/12 02:09:01;;;;;;;10.57;9.47;;;20.00;99.90;;;;;;5120996;27;20468;-83
2021/09/12 02:11:29;;;;;;;13.53;8.70;;;19.90;99.90;;;;;;5122163;27;20827;-81
2021/09/12 02:13:56;;;;;;;10.43;8.87;;;19.90;99.90;;;;;;5129236;27;20475;-84
2021/09/12 02:16:25;;;;;;;8.63;7.67;;;19.80;99.90;;;;;;5122535;27;20463;-82
2021/09/12 02:18:52;;;;;;;12.57;8.60;;;19.80;99.90;;;;;;5117905;27;20468;-83
2021/09/12 02:21:20;;;;;;;8.70;7.67;;;19.80;99.90;;;;;;5115834;27;20884;-82
2021/09/12 02:23:47;;;;;;;12.63;9.50;;;19.80;99.90;;;;;;5125093;27;20540;-82
2021/09/12 02:26:15;;;;;;;11.33;8.50;;;19.80;99.90;;;;;;5123737;27;20452;-83
2021/09/12 02:28:42;;;;;;;15.40;8.20;;;19.70;99.90;;;;;;5126126;27;20954;-81
2021/09/12 02:31:09;;;;;;;7.03;6.27;;;19.70;99.90;;;;;;5121413;27;20463;-82
2021/09/12 02:33:38;;;;;;;9.43;7.83;;;19.70;99.90;;;;;;5114209;27;20486;-82
2021/09/12 02:36:06;;;;;;;14.07;7.47;;;19.70;99.90;;;;;;5113641;27;20593;-81
2021/09/12 02:38:35;;;;;;;8.87;7.20;;;19.60;99.90;;;;;;5102557;27;20477;-82
2021/09/12 02:41:02;;;;;;;9.87;6.70;;;19.60;99.90;;;;;;5126460;27;20529;-81
2021/09/12 02:43:30;;;;;;;10.23;6.80;;;19.60;99.90;;;;;;5120163;27;20464;-82
2021/09/12 02:45:58;;;;;;;8.50;7.00;;;19.60;99.90;;;;;;5119634;27;20463;-83
2021/09/12 02:48:26;;;;;;;7.87;6.03;;;19.60;99.90;;;;;;5115669;27;20557;-84
2021/09/12 02:50:56;;;;;;;7.60;5.83;;;19.50;99.90;;;;;;5124980;27;20460;-81
2021/09/12 02:53:24;;;;;;;7.90;6.07;;;19.50;99.90;;;;;;5116941;27;20958;-82
2021/09/12 02:55:51;;;;;;;7.90;5.70;;;19.40;99.90;;;;;;5122897;27;20530;-82
2021/09/12 02:58:18;;;;;;;9.83;6.93;;;19.40;99.90;;;;;;5117512;27;20464;-81
2021/09/12 03:00:46;;;;;;;8.10;6.30;;;19.30;99.90;;;;;;5114816;27;20505;-82
2021/09/12 03:03:15;;;;;;;10.60;5.93;;;19.30;99.90;;;;;;5117949;27;20464;-82
2021/09/12 03:05:42;;;;;;;6.90;6.20;;;19.20;99.90;;;;;;5120469;27;20964;-83
2021/09/12 03:08:10;;;;;;;9.00;7.10;;;19.20;99.90;;;;;;5122778;27;20463;-83
2021/09/12 03:10:38;;;;;;;8.23;6.17;;;19.20;99.90;;;;;;5117328;27;20470;-83
2021/09/12 03:13:07;;;;;;;10.50;6.67;;;19.20;99.90;;;;;;5120743;27;20450;-83
2021/09/12 03:15:34;;;;;;;7.20;6.60;;;19.10;99.90;;;;;;5119622;27;20507;-83
2021/09/12 03:18:02;;;;;;;11.03;6.27;;;19.10;99.90;;;;;;5123454;27;20459;-81
2021/09/12 03:20:30;;;;;;;9.70;6.70;;;19.10;99.90;;;;;;5119416;27;20512;-83
2021/09/12 03:22:58;;;;;;;10.30;8.27;;;19.10;99.90;;;;;;5120717;27;20476;-81
2021/09/12 03:25:28;;;;;;;9.13;7.60;;;19.00;99.90;;;;;;5122943;27;20460;-82
2021/09/12 03:27:56;;;;;;;9.20;7.20;;;19.10;99.90;;;;;;5111579;27;20552;-82
2021/09/12 03:30:25;;;;;;;14.93;8.83;;;19.00;99.90;;;;;;5121085;27;20468;-81
2021/09/12 03:32:53;;;;;;;9.80;7.93;;;19.00;99.90;;;;;;5125435;27;20463;-82
2021/09/12 03:35:20;;;;;;;10.70;8.10;;;19.00;99.90;;;;;;5118796;27;20471;-82
2021/09/12 03:37:47;;;;;;;16.30;8.00;;;19.00;99.90;;;;;;5117126;27;20533;-83
2021/09/12 03:40:14;;;;;;;9.63;8.27;;;19.00;99.90;;;;;;5122211;27;21032;-82
2021/09/12 03:42:43;;;;;;;9.43;8.47;;;19.00;99.90;;;;;;5120209;27;20465;-83
2021/09/12 03:45:10;;;;;;;9.87;7.13;;;19.00;99.90;;;;;;5117219;27;20977;-82
2021/09/12 03:47:39;;;;;;;8.00;7.20;;;19.00;99.90;;;;;;5116506;27;20995;-83
2021/09/12 03:50:08;;;;;;;9.63;7.70;;;19.00;99.90;;;;;;5120311;27;21229;-83
2021/09/12 03:52:35;;;;;;;11.97;7.20;;;18.90;99.90;;;;;;5118792;27;20466;-81
2021/09/12 03:55:02;;;;;;;9.67;7.53;;;18.90;99.90;;;;;;5115953;27;20495;-83
2021/09/12 03:57:29;;;;;;;12.53;7.93;;;18.90;99.90;;;;;;5114768;28;20472;-81
2021/09/12 03:59:58;;;;;;;13.30;7.10;;;18.80;99.90;;;;;;5121094;28;20459;-82
2021/09/12 04:02:25;;;;;;;11.40;7.90;;;18.80;99.90;;;;;;5113490;28;20464;-81
2021/09/12 04:04:54;;;;;;;11.00;8.60;;;18.70;99.90;;;;;;5117245;28;20455;-82
2021/09/12 04:07:21;;;;;;;8.40;7.60;;;18.80;99.90;;;;;;5118180;28;20460;-83
2021/09/12 04:09:48;;;;;;;9.97;8.10;;;18.70;99.90;;;;;;5116263;28;20458;-82
2021/09/12 04:12:15;;;;;;;9.67;7.57;;;18.70;99.90;;;;;;5121155;28;20495;-81
2021/09/12 04:14:42;;;;;;;10.77;8.27;;;18.70;99.90;;;;;;5119700;28;20472;-83
2021/09/12 04:17:11;;;;;;;10.43;7.93;;;18.70;99.90;;;;;;5119522;27;20973;-81
2021/09/12 04:19:38;;;;;;;9.37;7.83;;;18.70;99.90;;;;;;5112582;28;20467;-82
2021/09/12 04:22:06;;;;;;;11.07;8.00;;;18.70;99.90;;;;;;5116994;28;20492;-81
2021/09/12 04:24:33;;;;;;;9.97;7.60;;;18.70;99.90;;;;;;5121774;28;20447;-81
2021/09/12 04:27:01;;;;;;;11.53;6.90;;;18.70;99.90;;;;;;5118432;28;20837;-82
2021/09/12 04:29:28;;;;;;;8.40;7.30;;;18.70;99.90;;;;;;5117318;28;20460;-81
2021/09/12 04:31:56;;;;;;;7.90;6.90;;;18.70;99.90;;;;;;5117948;28;20550;-82
2021/09/12 04:34:25;;;;;;;9.50;6.47;;;18.70;99.90;;;;;;5117885;28;20453;-81
2021/09/12 04:36:52;;;;;;;11.00;5.97;;;18.70;99.90;;;;;;5120717;28;20464;-83
2021/09/12 04:39:20;;;;;;;8.20;6.40;;;18.70;99.90;;;;;;5119008;28;20472;-82
2021/09/12 04:41:47;;;;;;;9.80;6.30;;;18.70;99.90;;;;;;5117099;28;20474;-84
2021/09/12 04:44:14;;;;;;;9.50;6.70;;;18.70;99.90;;;;;;5116984;27;20457;-82
2021/09/12 04:46:41;;;;;;;7.87;6.27;;;18.70;99.90;;;;;;5122263;27;20463;-81
2021/09/12 04:49:07;;;;;;;9.93;7.00;;;18.70;99.90;;;;;;5126143;27;20459;-82
2021/09/12 04:51:35;;;;;;;7.00;6.30;;;18.70;99.90;;;;;;5120427;27;20460;-84
2021/09/12 04:54:03;;;;;;;8.43;5.90;;;18.70;99.90;;;;;;5125573;27;20468;-81
2021/09/12 04:56:30;;;;;;;8.70;6.70;;;18.70;99.90;;;;;;5120477;27;20498;-81
2021/09/12 04:58:58;;;;;;;7.27;6.13;;;18.60;99.90;;;;;;5119460;27;20859;-83
2021/09/12 05:01:25;;;;;;;12.10;7.23;;;18.60;99.90;;;;;;5122203;27;20976;-83
2021/09/12 05:03:54;;;;;;;8.03;6.60;;;18.50;99.90;;;;;;5125352;27;20456;-83
2021/09/12 05:06:20;;;;;;;8.00;6.43;;;18.50;99.90;;;;;;5122797;27;20524;-83
2021/09/12 05:08:49;;;;;;;7.60;6.40;;;18.50;99.90;;;;;;5123486;27;20498;-83
2021/09/12 05:11:18;;;;;;;8.63;7.70;;;18.40;99.90;;;;;;5125366;27;20837;-83
2021/09/12 05:13:46;;;;;;;7.33;6.27;;;18.40;99.90;;;;;;5119960;27;20473;-82
2021/09/12 05:16:13;;;;;;;7.30;6.27;;;18.40;99.90;;;;;;5127729;27;20482;-82
2021/09/12 05:18:42;;;;;;;7.30;6.53;;;18.30;99.90;;;;;;5126153;27;20454;-83
2021/09/12 05:21:09;;;;;;;8.97;6.10;;;18.30;99.90;;;;;;5122772;27;21209;-85
2021/09/12 05:23:36;;;;;;;7.17;6.13;;;18.30;99.90;;;;;;5121188;27;20459;-87
2021/09/12 05:26:06;;;;;;;13.90;7.43;;;18.20;99.90;;;;;;5121164;27;20904;-85
2021/09/12 05:28:35;;;;;;;7.23;6.53;;;18.20;99.90;;;;;;5115430;27;20516;-84
2021/09/12 05:31:04;;;;;;;10.50;7.10;;;18.20;99.90;;;;;;5122496;27;20539;-85
2021/09/12 05:33:31;;;;;;;7.20;6.40;;;18.20;99.90;;;;;;5121618;27;20820;-84
2021/09/12 05:35:58;;;;;;;9.00;7.40;;;18.20;99.90;;;;;;5121491;27;20841;-83
2021/09/12 05:38:25;;;;;;;9.53;7.23;;;18.20;99.90;;;;;;5121727;27;20460;-85
2021/09/12 05:40:52;;;;;;;9.23;8.03;;;18.20;99.90;;;;;;5126773;27;20861;-84
2021/09/12 05:43:20;;;;;;;9.07;7.50;;;18.20;99.90;;;;;;5125183;27;20975;-85
2021/09/12 05:45:48;;;;;;;7.83;7.03;;;18.20;99.90;;;;;;5116398;27;20479;-85
2021/09/12 05:48:16;;;;;;;12.20;7.67;;;18.20;99.90;;;;;;5118477;27;20469;-85
2021/09/12 05:50:45;;;;;;;13.57;7.00;;;18.20;99.90;;;;;;5117418;27;20483;-85
2021/09/12 05:53:15;;;;;;;11.17;7.50;;;18.20;99.90;;;;;;5116933;27;20467;-85
2021/09/12 05:55:42;;;;;;;11.23;7.70;;;18.20;99.90;;;;;;5121664;27;20486;-85
2021/09/12 05:58:08;;;;;;;8.47;6.90;;;18.20;99.90;;;;;;5119081;27;20470;-84
2021/09/12 06:00:38;;;;;;;10.17;8.03;;;18.20;99.90;;;;;;5122970;27;20470;-82
2021/09/12 06:03:06;;;;;;;11.83;8.00;;;18.20;99.90;;;;;;5123384;27;20465;-84
2021/09/12 06:05:33;;;;;;;10.93;7.80;;;18.10;99.90;;;;;;5123295;27;20955;-83
2021/09/12 06:08:00;;;;;;;11.40;7.80;;;18.10;99.90;;;;;;5121037;27;20460;-84
2021/09/12 06:10:27;;;;;;;12.73;8.43;;;18.20;99.90;;;;;;5117313;27;20540;-83
2021/09/12 06:12:54;;;;;;;11.30;8.80;;;18.20;99.90;;;;;;5122006;27;20869;-84
2021/09/12 06:15:21;;;;;;;13.67;8.93;;;18.20;99.90;;;;;;5120468;27;21005;-85
2021/09/12 06:17:49;;;;;;;15.20;8.73;;;18.20;99.90;;;;;;5121263;27;20468;-83
2021/09/12 06:20:17;;;;;;;7.80;7.00;;;18.30;99.90;;;;;;5118881;27;20459;-84
2021/09/12 06:22:46;;;;;;;9.00;7.97;;;18.30;99.90;;;;;;5118198;27;20483;-84
2021/09/12 06:25:13;;;;;;;12.33;7.30;;;18.30;99.90;;;;;;5117954;27;20463;-84
2021/09/12 06:27:41;;;;;;;9.63;7.77;;;18.30;99.90;;;;;;5122108;27;20478;-83
2021/09/12 06:30:10;;;;;;;13.90;8.37;;;18.30;99.90;;;;;;5121472;27;20486;-83
2021/09/12 06:32:37;;;;;;;10.80;7.97;;;18.30;99.90;;;;;;5120623;27;20459;-84
2021/09/12 06:35:06;;;;;;;13.30;7.47;;;18.30;99.90;;;;;;5123764;27;20458;-85
2021/09/12 06:37:34;;;;;;;11.87;8.70;;;18.30;99.90;;;;;;5123588;27;20970;-83
2021/09/12 06:40:03;;;;;;;11.23;8.90;;;18.30;99.90;;;;;;5125993;27;20462;-83
2021/09/12 06:42:31;;;;;;;10.50;8.27;;;18.40;99.90;;;;;;5124605;27;20504;-84
2021/09/12 06:44:59;;;;;;;14.73;9.10;;;18.40;99.90;;;;;;5124399;27;20451;-83
2021/09/12 06:47:28;;;;;;;11.43;8.17;;;18.40;99.90;;;;;;5122997;27;20997;-85
2021/09/12 06:49:55;;;;;;;13.53;9.47;;;18.40;99.90;;;;;;5122017;27;20881;-84
2021/09/12 06:52:24;;;;;;;9.70;8.30;;;18.40;99.90;;;;;;5126075;27;20474;-84
2021/09/12 06:54:51;;;;;;;12.73;9.50;;;18.50;99.90;;;;;;5121736;27;20978;-84
2021/09/12 06:57:17;;;;;;;10.40;9.00;;;18.50;99.90;;;;;;5122205;27;20939;-85
2021/09/12 06:59:44;;;;;;;11.73;7.53;;;18.50;99.90;;;;;;5124411;27;20451;-85
2021/09/12 07:02:12;;;;;;;11.70;8.20;;;18.50;99.90;;;;;;5121135;27;21017;-84
2021/09/12 07:04:40;;;;;;;10.70;7.90;;;18.60;99.90;;;;;;5120901;27;20954;-84
2021/09/12 07:07:08;;;;;;;12.87;9.13;;;18.60;99.90;;;;;;5118821;27;20470;-86
2021/09/12 07:09:36;;;;;;;13.37;9.20;;;18.60;99.90;;;;;;5117846;27;20467;-85
2021/09/12 07:12:04;;;;;;;17.80;9.60;;;18.70;99.90;;;;;;5119361;27;20459;-85
2021/09/12 07:14:31;;;;;;;12.77;8.00;;;18.70;99.90;;;;;;5118179;27;20976;-85
2021/09/12 07:16:58;;;;;;;12.27;8.33;;;18.70;99.90;;;;;;5129267;27;20988;-83
2021/09/12 07:19:26;;;;;;;10.57;7.30;;;18.80;99.90;;;;;;5119368;27;20807;-84
2021/09/12 07:21:54;;;;;;;9.23;6.37;;;18.80;99.90;;;;;;5120112;27;20602;-85
2021/09/12 07:24:21;;;;;;;7.27;6.13;;;18.90;99.90;;;;;;5115950;27;20465;-85
2021/09/12 07:26:50;;;;;;;10.47;6.80;;;18.90;99.90;;;;;;5122494;27;20464;-84
2021/09/12 07:29:17;;;;;;;16.27;6.07;;;19.00;99.90;;;;;;5118190;27;20990;-85
2021/09/12 07:31:44;;;;;;;8.80;5.93;;;19.00;99.90;;;;;;5125766;27;20451;-86
2021/09/12 07:34:14;;;;;;;9.13;6.33;;;19.10;99.90;;;;;;5116858;27;20867;-83
2021/09/12 07:36:41;;;;;;;10.00;6.47;;;19.10;99.90;;;;;;5118499;27;20507;-86
2021/09/12 07:39:08;;;;;;;10.00;6.90;;;19.10;99.90;;;;;;5116075;27;20460;-84
2021/09/12 07:41:35;;;;;;;7.70;5.73;;;19.20;99.90;;;;;;5115797;27;20496;-84
2021/09/12 07:44:03;;;;;;;9.77;5.70;;;19.20;99.90;;;;;;5114945;27;20551;-84
2021/09/12 07:46:30;;;;;;;10.57;6.03;;;19.20;99.90;;;;;;5111766;27;20472;-84
2021/09/12 07:48:57;;;;;;;6.67;4.60;;;19.30;99.90;;;;;;5112621;27;20460;-84
2021/09/12 07:51:24;;;;;;;5.13;4.33;;;19.30;99.90;;;;;;5111283;27;20496;-85
2021/09/12 07:53:52;;;;;;;6.00;4.53;;;19.30;99.90;;;;;;5120096;27;20952;-85
2021/09/12 07:56:19;;;;;;;5.73;4.77;;;19.30;99.90;;;;;;5118330;27;20575;-85
2021/09/12 07:58:46;;;;;;;8.67;5.37;;;19.30;99.90;;;;;;5118095;28;20486;-85
2021/09/12 08:01:15;;;;;;;6.17;5.10;;;19.30;99.90;;;;;;5113665;28;20471;-84
2021/09/12 08:03:42;;;;;;;5.90;4.63;;;19.40;99.90;;;;;;5114638;28;20543;-83
2021/09/12 08:06:09;;;;;;;4.37;3.80;;;19.40;99.90;;;;;;5118620;28;20488;-84
2021/09/12 08:08:36;;;;;;;10.03;4.53;;;19.40;99.90;;;;;;5113726;28;21335;-84
2021/09/12 08:11:03;;;;;;;6.20;3.93;;;19.40;99.90;;;;;;5113496;28;20563;-86
2021/09/12 08:13:30;;;;;;;11.23;4.50;;;19.40;99.90;;;;;;5124547;28;20486;-86
2021/09/12 08:15:58;;;;;;;5.10;4.30;;;19.50;99.90;;;;;;5115291;27;20519;-84
2021/09/12 08:18:26;;;;;;;5.03;4.50;;;19.50;99.90;;;;;;5114793;28;20539;-86
2021/09/12 08:20:54;;;;;;;7.70;4.23;;;19.50;99.90;;;;;;5124587;27;20482;-85
2021/09/12 08:23:21;;;;;;;10.70;4.97;;;19.50;99.90;;;;;;5118905;27;20540;-85
2021/09/12 08:25:48;;;;;;;7.67;4.30;;;19.50;99.90;;;;;;5122308;27;20466;-85
2021/09/12 08:28:14;;;;;;;7.63;4.40;;;19.60;99.90;;;;;;5121749;27;20474;-84
2021/09/12 08:30:41;;;;;;;4.60;3.97;;;19.60;99.90;;;;;;5122796;27;20459;-85
2021/09/12 08:33:12;;;;;;;5.37;3.83;;;19.70;99.90;;;;;;5114810;27;21123;-86
2021/09/12 08:35:42;;;;;;;7.00;4.40;;;19.70;99.90;;;;;;5127398;27;20453;-85
2021/09/12 08:38:10;;;;;;;4.67;4.17;;;19.70;99.90;;;;;;5121029;27;20461;-86
2021/09/12 08:40:37;;;;;;;5.27;3.33;;;19.70;99.90;;;;;;5120185;27;20486;-85
2021/09/12 08:43:06;;;;;;;4.90;3.60;;;19.80;99.90;;;;;;5118173;27;20518;-86
2021/09/12 08:45:34;;;;;;;4.83;3.00;;;19.80;99.90;;;;;;5122154;27;20494;-84
2021/09/12 08:48:02;;;;;;;5.00;3.40;;;19.80;99.90;;;;;;5119849;27;20514;-85
2021/09/12 08:50:29;;;;;;;5.50;3.33;;;19.90;99.90;;;;;;5123546;27;20471;-86
2021/09/12 08:52:58;;;;;;;15.17;3.97;;;19.90;99.90;;;;;;5126326;27;20458;-84
2021/09/12 08:55:25;;;;;;;6.33;3.03;;;20.00;99.90;;;;;;5124341;27;20464;-85
2021/09/12 08:58:23;;;;;;;4.10;2.70;;;20.00;99.90;;;;;;5114177;27;20489;-85
2021/09/12 09:01:21;;;;;;;5.07;2.80;;;20.10;99.90;;;;;;5007923;28;20465;-85
2021/09/12 09:04:09;;;;;;;5.90;2.83;;;20.10;99.90;;;;;;4913429;29;20477;-83
2021/09/12 09:06:58;;;;;;;3.37;2.90;;;20.20;99.90;;;;;;4985320;28;20502;-84
2021/09/12 09:09:58;;;;;;;5.43;2.70;;;20.20;99.90;;;;;;5027911;27;20448;-84
2021/09/12 09:19:17;;;;;;;7.03;2.50;;;20.40;99.90;;;;;;4958378;28;21009;-85
2021/09/12 09:22:13;;;;;;;5.00;2.80;;;20.40;99.90;;;;;;4948594;28;20548;-86
2021/09/12 09:25:10;;;;;;;5.43;3.03;;;20.40;99.90;;;;;;4888581;29;20467;-87
2021/09/12 09:28:21;;;;;;;3.53;2.20;;;20.50;99.90;;;;;;4913196;28;20521;-84
2021/09/12 09:31:21;;;;;;;2.70;2.50;;;20.50;99.90;;;;;;4996805;28;20467;-85
2021/09/12 09:41:40;;;;;;;5.53;2.47;;;20.60;99.90;;;;;;4952067;28;21021;-85
2021/09/12 09:44:40;;;;;;;4.57;2.60;;;20.70;99.90;;;;;;4954466;28;20495;-85
2021/09/12 09:51:23;;;;;;;2.63;2.43;;;20.70;99.90;;;;;;4910291;28;20522;-84
2021/09/12 09:54:20;;;;;;;2.80;2.27;;;20.70;99.90;;;;;;4934212;28;21058;-84
2021/09/12 09:57:16;;;;;;;4.40;2.70;;;20.80;99.90;;;;;;4867118;29;20594;-85
2021/09/12 10:00:13;;;;;;;2.97;2.67;;;20.80;99.90;;;;;;4973559;28;20459;-84
2021/09/12 10:03:10;;;;;;;3.13;2.30;;;20.80;99.90;;;;;;4983740;28;20466;-85
2021/09/12 10:06:07;;;;;;;2.60;2.40;;;20.80;99.90;;;;;;4908266;29;20470;-83
2021/09/12 10:13:02;;;;;;;4.60;2.80;;;20.90;99.90;;;;;;4872776;28;20462;-84
2021/09/12 10:21:53;;;;;;;4.83;2.30;;;21.00;99.90;;;;;;4899179;28;20474;-85
2021/09/12 10:24:49;;;;;;;2.57;2.37;;;21.00;99.90;;;;;;4977459;28;20572;-85
2021/09/12 10:27:49;;;;;;;3.60;2.50;;;21.00;99.90;;;;;;4977942;28;21058;-85
2021/09/12 10:39:56;;;;;;;4.27;2.50;;;21.20;99.90;;;;;;4938449;28;20563;-85
2021/09/12 10:42:23;;;;;;;3.23;2.93;;;21.30;99.90;;;;;;5059956;27;20468;-84
2021/09/12 10:45:28;;;;;;;4.17;2.47;;;21.30;99.90;;;;;;5121554;27;20518;-85
2021/09/12 10:48:20;;;;;;;4.70;2.00;;;21.30;99.90;;;;;;5114853;27;20795;-86
2021/09/12 10:50:48;;;;;;;6.93;2.47;;;21.40;99.90;;;;;;5123299;27;20977;-85
2021/09/12 10:53:18;;;;;;;3.00;1.83;;;21.40;99.90;;;;;;5112207;27;20463;-85
2021/09/12 10:56:11;;;;;;;2.47;1.93;;;21.40;99.90;;;;;;5118145;27;20448;-85
2021/09/12 10:58:39;;;;;;;5.17;2.13;;;21.50;99.90;;;;;;5090196;27;21089;-85
2021/09/12 11:01:07;;;;;;;4.70;2.43;;;21.50;99.90;;;;;;5117903;27;20884;-86
2021/09/12 11:03:35;;;;;;;2.60;2.40;;;21.60;99.90;;;;;;5116168;27;20458;-85
2021/09/12 11:06:03;;;;;;;4.80;2.20;;;21.60;99.90;;;;;;5117922;27;20461;-84
2021/09/12 11:08:34;;;;;;;4.07;2.30;;;21.70;99.90;;;;;;5120826;27;20457;-85
2021/09/12 11:11:01;;;;;;;4.03;2.73;;;21.70;99.90;;;;;;5122554;27;20962;-84
2021/09/12 11:13:31;;;;;;;3.13;2.50;;;21.80;99.90;;;;;;5118795;27;20471;-85
2021/09/12 11:16:08;;;;;;;5.00;2.17;;;21.80;99.90;;;;;;5126950;27;20544;-85
2021/09/12 11:18:46;;;;;;;2.67;2.43;;;21.80;99.90;;;;;;5113638;27;20485;-85
2021/09/12 11:21:25;;;;;;;2.80;2.13;;;21.80;99.90;;;;;;5115558;27;20513;-86
2021/09/12 11:23:57;;;;;;;5.87;2.50;;;21.80;99.90;;;;;;5117286;27;20462;-86
2021/09/12 11:26:26;;;;;;;2.43;2.20;;;21.80;99.90;;;;;;5119200;27;20464;-85
2021/09/12 11:29:07;;;;;;;5.03;2.57;;;21.80;99.90;;;;;;5120625;27;20482;-86
2021/09/12 11:31:36;;;;;;;3.30;2.13;;;21.80;99.90;;;;;;5121940;27;20986;-84
2021/09/12 11:34:03;;;;;;;4.63;2.60;;;21.80;99.90;;;;;;5121342;27;20550;-85
2021/09/12 11:36:47;;;;;;;6.33;2.90;;;21.80;99.90;;;;;;5119680;27;20459;-85
2021/09/12 11:39:16;;;;;;;2.77;2.10;;;21.80;99.90;;;;;;5119991;27;20496;-84
2021/09/12 11:41:44;;;;;;;3.10;2.40;;;21.90;99.90;;;;;;5122609;27;20799;-84
2021/09/12 11:44:13;;;;;;;3.70;2.20;;;21.90;99.90;;;;;;5119678;27;21023;-86
2021/09/12 11:46:47;;;;;;;4.27;2.30;;;21.90;99.90;;;;;;5118846;27;20464;-84
2021/09/12 11:49:16;;;;;;;3.77;1.97;;;21.90;99.90;;;;;;5118017;27;20460;-85
2021/09/12 11:51:46;;;;;;;3.10;2.03;;;21.90;99.90;;;;;;5115626;27;20457;-85
2021/09/12 11:54:16;;;;;;;2.27;2.00;;;22.00;99.90;;;;;;5122835;27;20967;-86
2021/09/12 11:56:45;;;;;;;2.23;2.03;;;22.00;99.90;;;;;;5112897;27;20473;-86
2021/09/12 11:59:17;;;;;;;6.60;2.43;;;22.00;99.90;;;;;;5114575;27;20543;-84
2021/09/12 12:01:48;;;;;;;3.20;2.50;;;22.00;99.90;;;;;;5121106;28;20513;-85
2021/09/12 12:04:16;;;;;;;4.50;2.63;;;22.00;99.90;;;;;;5121300;28;20541;-89
2021/09/12 12:06:46;;;;;;;3.47;2.30;;;22.00;99.90;;;;;;5116013;28;20574;-85
2021/09/12 12:09:16;;;;;;;3.17;2.27;;;22.10;99.90;;;;;;5117797;28;20448;-84
2021/09/12 12:11:45;;;;;;;6.43;2.90;;;22.10;99.90;;;;;;5115712;28;21197;-84
2021/09/12 12:14:22;;;;;;;3.30;2.30;;;22.10;99.90;;;;;;5113360;28;20455;-86
2021/09/12 12:16:49;;;;;;;5.83;2.30;;;22.10;99.90;;;;;;5119919;27;20509;-84
2021/09/12 12:19:19;;;;;;;3.40;2.40;;;22.10;99.90;;;;;;5113416;28;20490;-86
2021/09/12 12:21:48;;;;;;;4.43;2.47;;;22.10;99.90;;;;;;5115501;28;20473;-85
2021/09/12 12:24:18;;;;;;;3.20;2.10;;;22.10;99.90;;;;;;5120891;28;20460;-85
2021/09/12 12:26:47;;;;;;;2.30;2.10;;;22.10;99.90;;;;;;5121048;28;20448;-85
2021/09/12 12:29:27;;;;;;;3.90;2.50;;;22.10;99.90;;;;;;5119412;28;20963;-84
2021/09/12 12:31:56;;;;;;;2.57;2.37;;;22.10;99.90;;;;;;5117828;27;20528;-85
2021/09/12 12:34:36;;;;;;;3.83;2.23;;;22.20;99.90;;;;;;5119288;28;20460;-85
2021/09/12 12:37:04;;;;;;;4.37;2.90;;;22.10;99.90;;;;;;5118280;28;20464;-86
2021/09/12 12:39:31;;;;;;;3.13;2.67;;;22.10;99.90;;;;;;5120948;28;20484;-85
2021/09/12 12:41:59;;;;;;;4.83;2.40;;;22.10;99.90;;;;;;5118111;28;20463;-84
2021/09/12 12:44:27;;;;;;;5.10;2.63;;;22.10;99.90;;;;;;5121497;28;20460;-85
2021/09/12 12:46:56;;;;;;;4.30;2.60;;;22.20;99.90;;;;;;5117403;28;20972;-85
2021/09/12 12:49:31;;;;;;;6.80;3.10;;;22.30;99.90;;;;;;5119009;28;20452;-86
2021/09/12 12:52:10;;;;;;;4.73;2.77;;;22.30;99.90;;;;;;5120105;28;20496;-85
2021/09/12 12:54:39;;;;;;;3.50;2.80;;;22.40;99.90;;;;;;5113449;28;20460;-85
2021/09/12 12:57:14;;;;;;;2.80;2.50;;;22.50;99.90;;;;;;5120050;28;20456;-84
2021/09/12 12:59:51;;;;;;;4.23;2.60;;;22.50;99.90;;;;;;5123508;28;20539;-85
2021/09/12 13:02:19;;;;;;;4.13;2.50;;;22.50;99.90;;;;;;5118952;28;20447;-86
2021/09/12 13:04:49;;;;;;;2.97;2.70;;;22.50;99.90;;;;;;5113187;28;20531;-85
2021/09/12 13:07:17;;;;;;;3.90;2.77;;;22.50;99.90;;;;;;5125040;27;20463;-85
2021/09/12 13:09:45;;;;;;;6.17;2.97;;;22.60;99.90;;;;;;5123232;27;20476;-85
2021/09/12 13:12:13;;;;;;;3.13;2.80;;;22.60;99.90;;;;;;5126399;27;20951;-85
2021/09/12 13:14:41;;;;;;;3.07;2.50;;;22.60;99.90;;;;;;5121466;27;20456;-86
2021/09/12 13:17:10;;;;;;;3.30;2.57;;;22.60;99.90;;;;;;5122381;27;20712;-84
2021/09/12 13:19:37;;;;;;;4.93;2.80;;;22.60;99.90;;;;;;5119762;27;20494;-85
2021/09/12 13:22:04;;;;;;;3.40;2.87;;;22.70;99.90;;;;;;5125672;27;20488;-85
2021/09/12 13:24:31;;;;;;;5.07;2.73;;;22.70;99.90;;;;;;5122345;27;20477;-85
2021/09/12 13:26:59;;;;;;;2.83;2.57;;;22.70;99.90;;;;;;5117992;27;20512;-85
2021/09/12 13:29:26;;;;;;;2.97;2.70;;;22.70;99.90;;;;;;5120956;27;20462;-85
2021/09/12 13:31:54;;;;;;;3.27;2.73;;;22.60;99.90;;;;;;5120654;27;20465;-86
2021/09/12 13:34:26;;;;;;;3.93;2.70;;;22.60;99.90;;;;;;5126360;27;20453;-85
2021/09/12 13:36:53;;;;;;;3.23;2.90;;;22.60;99.90;;;;;;5124537;27;20513;-84